Moravia, Texas
Current Conditions -  °F | °C
As of 4:30 PM on Friday 19 Dec 2014 (Local Time) from K3T5 Reporting Station
Overcast Overcast  
Wind Chill: 57°   Ceiling: 1500
Heat Index: 57°   Visibility: 10mi
Dew Point: 53°   Wind: 12mph
Humidity: 85%   Direction: 350°N
Pressure: 30.06"   Gusts: NA
Location:  29.7125°N, 96.9231°W
Report Text: K3T5 192230Z AUTO 35010KT 10SM BKN015 OVC020 14/12 A3006 RMK AO2 T01400115
Loading
Personal Weather Stations






























Interactive Weather Map New forecast layout! Learn more

10-Day Weather Forecast

Advertisements
Track Severe Weather on mobile